sensor_id;sensor_type;location;lat;lon;timestamp;pressure;altitude;pressure_sealevel;temperature;humidity
4617;BME280;2321;42.704;23.384;2022-12-11T00:01:52;93295.97;;;11.70;100.00
4617;BME280;2321;42.704;23.384;2022-12-11T00:04:19;93332.44;;;11.64;100.00
4617;BME280;2321;42.704;23.384;2022-12-11T00:06:48;93420.19;;;11.49;100.00
4617;BME280;2321;42.704;23.384;2022-12-11T00:09:15;93368.81;;;11.53;100.00
4617;BME280;2321;42.704;23.384;2022-12-11T00:11:42;93366.28;;;11.64;100.00
4617;BME280;2321;42.704;23.384;2022-12-11T00:14:10;93367.44;;;11.73;100.00
4617;BME280;2321;42.704;23.384;2022-12-11T00:16:37;93374.13;;;11.76;100.00
4617;BME280;2321;42.704;23.384;2022-12-11T00:19:04;93321.94;;;11.80;100.00
4617;BME280;2321;42.704;23.384;2022-12-11T00:21:31;93302.78;;;11.83;100.00
4617;BME280;2321;42.704;23.384;2022-12-11T00:24:00;93383.41;;;11.68;100.00
4617;BME280;2321;42.704;23.384;2022-12-11T00:26:27;93360.50;;;11.72;100.00
4617;BME280;2321;42.704;23.384;2022-12-11T00:28:55;93325.88;;;11.77;100.00
4617;BME280;2321;42.704;23.384;2022-12-11T00:31:22;93319.00;;;11.82;100.00
4617;BME280;2321;42.704;23.384;2022-12-11T00:33:50;93338.03;;;11.91;100.00
4617;BME280;2321;42.704;23.384;2022-12-11T00:36:18;93371.03;;;11.84;100.00
4617;BME280;2321;42.704;23.384;2022-12-11T00:38:46;93356.88;;;11.84;100.00
4617;BME280;2321;42.704;23.384;2022-12-11T00:41:17;93321.94;;;11.80;100.00
4617;BME280;2321;42.704;23.384;2022-12-11T00:43:44;93352.03;;;11.81;100.00
4617;BME280;2321;42.704;23.384;2022-12-11T00:46:12;93338.38;;;11.72;100.00
4617;BME280;2321;42.704;23.384;2022-12-11T00:48:38;93284.78;;;11.68;100.00
4617;BME280;2321;42.704;23.384;2022-12-11T00:51:06;93336.19;;;11.69;100.00
4617;BME280;2321;42.704;23.384;2022-12-11T00:53:33;93304.56;;;11.77;100.00
4617;BME280;2321;42.704;23.384;2022-12-11T00:56:00;93311.31;;;11.85;100.00
4617;BME280;2321;42.704;23.384;2022-12-11T00:58:28;93357.97;;;11.83;100.00
4617;BME280;2321;42.704;23.384;2022-12-11T01:01:04;93330.34;;;11.94;100.00
4617;BME280;2321;42.704;23.384;2022-12-11T01:03:32;93364.50;;;11.97;100.00
4617;BME280;2321;42.704;23.384;2022-12-11T01:05:58;93339.38;;;11.93;100.00
4617;BME280;2321;42.704;23.384;2022-12-11T01:08:26;93301.53;;;11.96;100.00
4617;BME280;2321;42.704;23.384;2022-12-11T01:11:00;93295.19;;;12.03;100.00
4617;BME280;2321;42.704;23.384;2022-12-11T01:13:26;93325.53;;;11.96;100.00
4617;BME280;2321;42.704;23.384;2022-12-11T01:15:55;93375.47;;;12.01;100.00
4617;BME280;2321;42.704;23.384;2022-12-11T01:18:22;93348.59;;;12.08;100.00
4617;BME280;2321;42.704;23.384;2022-12-11T01:20:49;93377.75;;;12.15;100.00
4617;BME280;2321;42.704;23.384;2022-12-11T01:23:16;93385.13;;;12.07;100.00
4617;BME280;2321;42.704;23.384;2022-12-11T01:25:43;93313.94;;;12.08;100.00
4617;BME280;2321;42.704;23.384;2022-12-11T01:28:10;93369.69;;;12.09;100.00
4617;BME280;2321;42.704;23.384;2022-12-11T01:30:39;93382.66;;;12.01;100.00
4617;BME280;2321;42.704;23.384;2022-12-11T01:33:08;93379.53;;;12.09;100.00
4617;BME280;2321;42.704;23.384;2022-12-11T01:35:35;93376.56;;;12.05;100.00
4617;BME280;2321;42.704;23.384;2022-12-11T01:38:04;93337.56;;;11.99;100.00
4617;BME280;2321;42.704;23.384;2022-12-11T01:40:31;93341.03;;;11.99;100.00
4617;BME280;2321;42.704;23.384;2022-12-11T01:42:58;93308.50;;;11.97;100.00
4617;BME280;2321;42.704;23.384;2022-12-11T01:45:32;93282.63;;;11.98;100.00
4617;BME280;2321;42.704;23.384;2022-12-11T01:48:04;93313.94;;;12.08;100.00
4617;BME280;2321;42.704;23.384;2022-12-11T01:50:38;93336.63;;;12.11;100.00
4617;BME280;2321;42.704;23.384;2022-12-11T01:53:09;93356.66;;;12.13;100.00
4617;BME280;2321;42.704;23.384;2022-12-11T01:55:38;93355.03;;;12.12;100.00
4617;BME280;2321;42.704;23.384;2022-12-11T01:58:07;93367.09;;;12.15;100.00
4617;BME280;2321;42.704;23.384;2022-12-11T02:00:36;93365.03;;;12.22;100.00
4617;BME280;2321;42.704;23.384;2022-12-11T02:03:03;93352.19;;;12.19;100.00
4617;BME280;2321;42.704;23.384;2022-12-11T02:05:30;93363.47;;;12.26;100.00
4617;BME280;2321;42.704;23.384;2022-12-11T02:07:59;93353.69;;;12.37;100.00
4617;BME280;2321;42.704;23.384;2022-12-11T02:10:35;93350.41;;;12.63;100.00
4617;BME280;2321;42.704;23.384;2022-12-11T02:13:10;93354.78;;;12.80;100.00
4617;BME280;2321;42.704;23.384;2022-12-11T02:15:47;93374.72;;;13.05;100.00
4617;BME280;2321;42.704;23.384;2022-12-11T02:18:21;93380.03;;;13.48;100.00
4617;BME280;2321;42.704;23.384;2022-12-11T02:20:55;93338.72;;;13.82;100.00
4617;BME280;2321;42.704;23.384;2022-12-11T02:23:48;93350.81;;;14.11;100.00
4617;BME280;2321;42.704;23.384;2022-12-11T02:26:35;93342.56;;;14.44;100.00
4617;BME280;2321;42.704;23.384;2022-12-11T02:29:12;93306.38;;;14.57;100.00
4617;BME280;2321;42.704;23.384;2022-12-11T02:31:45;93277.72;;;14.63;100.00
4617;BME280;2321;42.704;23.384;2022-12-11T02:34:18;93303.44;;;14.69;100.00
4617;BME280;2321;42.704;23.384;2022-12-11T02:36:50;93314.13;;;14.80;100.00
4617;BME280;2321;42.704;23.384;2022-12-11T02:39:20;93317.09;;;14.99;100.00
4617;BME280;2321;42.704;23.384;2022-12-11T02:41:50;93294.78;;;15.09;100.00
4617;BME280;2321;42.704;23.384;2022-12-11T02:44:22;93300.69;;;15.17;100.00
4617;BME280;2321;42.704;23.384;2022-12-11T02:46:50;93288.88;;;15.23;100.00
4617;BME280;2321;42.704;23.384;2022-12-11T02:49:18;93297.69;;;15.29;100.00
4617;BME280;2321;42.704;23.384;2022-12-11T02:51:46;93306.22;;;15.41;100.00
4617;BME280;2321;42.704;23.384;2022-12-11T02:54:16;93310.97;;;15.60;100.00
4617;BME280;2321;42.704;23.384;2022-12-11T02:56:49;93292.63;;;15.78;100.00
4617;BME280;2321;42.704;23.384;2022-12-11T02:59:23;93286.13;;;15.89;100.00
4617;BME280;2321;42.704;23.384;2022-12-11T03:01:51;93291.78;;;15.88;100.00
4617;BME280;2321;42.704;23.384;2022-12-11T03:04:18;93333.91;;;15.87;100.00
4617;BME280;2321;42.704;23.384;2022-12-11T03:06:52;93327.75;;;15.82;100.00
4617;BME280;2321;42.704;23.384;2022-12-11T03:09:21;93327.50;;;15.78;100.00
4617;BME280;2321;42.704;23.384;2022-12-11T03:11:48;93335.66;;;15.57;100.00
4617;BME280;2321;42.704;23.384;2022-12-11T03:14:14;93323.84;;;15.63;98.65
4617;BME280;2321;42.704;23.384;2022-12-11T03:16:48;93316.44;;;15.90;86.64
4617;BME280;2321;42.704;23.384;2022-12-11T03:19:26;93311.47;;;16.13;84.77
4617;BME280;2321;42.704;23.384;2022-12-11T03:21:58;93291.88;;;16.18;88.06
4617;BME280;2321;42.704;23.384;2022-12-11T03:24:31;93293.47;;;16.19;84.33
4617;BME280;2321;42.704;23.384;2022-12-11T03:27:02;93292.63;;;16.23;82.08
4617;BME280;2321;42.704;23.384;2022-12-11T03:29:36;93284.72;;;16.38;83.45
4617;BME280;2321;42.704;23.384;2022-12-11T03:32:09;93295.50;;;16.32;84.05
4617;BME280;2321;42.704;23.384;2022-12-11T03:34:41;93297.06;;;16.39;86.65
4617;BME280;2321;42.704;23.384;2022-12-11T03:37:09;93337.88;;;16.41;83.75
4617;BME280;2321;42.704;23.384;2022-12-11T03:39:40;93326.75;;;16.53;78.83
4617;BME280;2321;42.704;23.384;2022-12-11T03:42:11;93325.13;;;16.87;72.62
4617;BME280;2321;42.704;23.384;2022-12-11T03:44:41;93354.38;;;16.94;76.53
4617;BME280;2321;42.704;23.384;2022-12-11T03:47:15;93377.28;;;16.86;71.33
4617;BME280;2321;42.704;23.384;2022-12-11T03:49:44;93359.00;;;16.88;69.96
4617;BME280;2321;42.704;23.384;2022-12-11T03:52:12;93348.50;;;16.92;66.24
4617;BME280;2321;42.704;23.384;2022-12-11T03:54:42;93378.00;;;16.97;70.39
4617;BME280;2321;42.704;23.384;2022-12-11T03:57:15;93375.53;;;17.01;69.02
4617;BME280;2321;42.704;23.384;2022-12-11T03:59:42;93350.22;;;17.07;66.21
4617;BME280;2321;42.704;23.384;2022-12-11T04:02:09;93346.78;;;17.01;65.76
4617;BME280;2321;42.704;23.384;2022-12-11T04:04:38;93330.09;;;17.04;64.11
4617;BME280;2321;42.704;23.384;2022-12-11T04:07:06;93311.44;;;17.13;59.67
4617;BME280;2321;42.704;23.384;2022-12-11T04:09:33;93313.47;;;17.27;59.79
4617;BME280;2321;42.704;23.384;2022-12-11T04:12:00;93327.84;;;17.41;60.31
4617;BME280;2321;42.704;23.384;2022-12-11T04:14:27;93340.44;;;17.46;60.99
4617;BME280;2321;42.704;23.384;2022-12-11T04:17:11;93373.34;;;17.38;64.86
4617;BME280;2321;42.704;23.384;2022-12-11T04:20:00;93374.53;;;17.26;73.78
4617;BME280;2321;42.704;23.384;2022-12-11T04:22:44;93358.28;;;17.07;79.44
4617;BME280;2321;42.704;23.384;2022-12-11T04:25:28;93324.63;;;16.85;85.20
4617;BME280;2321;42.704;23.384;2022-12-11T04:27:55;93355.13;;;16.70;81.87
4617;BME280;2321;42.704;23.384;2022-12-11T04:30:23;93360.84;;;16.58;89.52
4617;BME280;2321;42.704;23.384;2022-12-11T04:32:52;93353.66;;;16.48;71.39
4617;BME280;2321;42.704;23.384;2022-12-11T04:35:21;93352.03;;;16.52;79.43
4617;BME280;2321;42.704;23.384;2022-12-11T04:37:48;93353.13;;;16.51;81.90
4617;BME280;2321;42.704;23.384;2022-12-11T04:40:17;93360.69;;;16.43;85.75
4617;BME280;2321;42.704;23.384;2022-12-11T04:42:44;93347.59;;;16.37;78.72
4617;BME280;2321;42.704;23.384;2022-12-11T04:45:11;93343.03;;;16.37;77.11
4617;BME280;2321;42.704;23.384;2022-12-11T04:47:39;93359.66;;;16.39;67.28
4617;BME280;2321;42.704;23.384;2022-12-11T04:50:09;93377.53;;;16.54;64.82
4617;BME280;2321;42.704;23.384;2022-12-11T04:52:37;93364.63;;;16.57;66.28
4617;BME280;2321;42.704;23.384;2022-12-11T04:55:05;93360.28;;;16.61;63.85
4617;BME280;2321;42.704;23.384;2022-12-11T04:57:32;93352.50;;;16.59;66.88
4617;BME280;2321;42.704;23.384;2022-12-11T04:59:59;93359.78;;;16.59;69.32
4617;BME280;2321;42.704;23.384;2022-12-11T05:02:26;93375.44;;;16.46;72.73
4617;BME280;2321;42.704;23.384;2022-12-11T05:04:53;93358.59;;;16.35;69.94
4617;BME280;2321;42.704;23.384;2022-12-11T05:07:20;93363.72;;;16.31;65.61
4617;BME280;2321;42.704;23.384;2022-12-11T05:09:48;93376.31;;;16.36;64.15
4617;BME280;2321;42.704;23.384;2022-12-11T05:12:15;93391.06;;;16.39;64.62
4617;BME280;2321;42.704;23.384;2022-12-11T05:14:42;93384.34;;;16.41;65.06
4617;BME280;2321;42.704;23.384;2022-12-11T05:17:09;93383.81;;;16.39;63.96
4617;BME280;2321;42.704;23.384;2022-12-11T05:19:36;93381.66;;;16.41;66.20
4617;BME280;2321;42.704;23.384;2022-12-11T05:22:03;93394.81;;;16.38;67.54
4617;BME280;2321;42.704;23.384;2022-12-11T05:24:30;93398.31;;;16.38;67.84
4617;BME280;2321;42.704;23.384;2022-12-11T05:26:58;93397.50;;;16.38;66.96
4617;BME280;2321;42.704;23.384;2022-12-11T05:29:25;93395.63;;;16.38;65.66
4617;BME280;2321;42.704;23.384;2022-12-11T05:31:52;93405.81;;;16.41;67.26
4617;BME280;2321;42.704;23.384;2022-12-11T05:34:19;93393.50;;;16.35;69.42
4617;BME280;2321;42.704;23.384;2022-12-11T05:36:46;93398.63;;;16.31;69.38
4617;BME280;2321;42.704;23.384;2022-12-11T05:39:12;93391.94;;;16.29;69.22
4617;BME280;2321;42.704;23.384;2022-12-11T05:41:39;93390.59;;;16.26;69.17
4617;BME280;2321;42.704;23.384;2022-12-11T05:44:10;93383.66;;;16.20;68.98
4617;BME280;2321;42.704;23.384;2022-12-11T05:46:37;93379.34;;;16.24;69.51
4617;BME280;2321;42.704;23.384;2022-12-11T05:49:04;93378.28;;;16.20;71.23
4617;BME280;2321;42.704;23.384;2022-12-11T05:51:32;93373.47;;;16.17;72.73
4617;BME280;2321;42.704;23.384;2022-12-11T05:53:59;93361.16;;;16.16;72.57
4617;BME280;2321;42.704;23.384;2022-12-11T05:56:28;93371.34;;;16.14;71.42
4617;BME280;2321;42.704;23.384;2022-12-11T05:58:56;93358.44;;;16.21;67.21
4617;BME280;2321;42.704;23.384;2022-12-11T06:01:27;93368.09;;;16.22;71.12
4617;BME280;2321;42.704;23.384;2022-12-11T06:03:55;93374.78;;;16.19;72.24
4617;BME280;2321;42.704;23.384;2022-12-11T06:06:23;93372.66;;;16.16;72.68
4617;BME280;2321;42.704;23.384;2022-12-11T06:08:51;93374.03;;;16.14;70.94
4617;BME280;2321;42.704;23.384;2022-12-11T06:11:18;93370.78;;;16.17;70.75
4617;BME280;2321;42.704;23.384;2022-12-11T06:13:45;93368.88;;;16.22;69.12
4617;BME280;2321;42.704;23.384;2022-12-11T06:16:12;93387.13;;;16.26;68.92
4617;BME280;2321;42.704;23.384;2022-12-11T06:18:42;93390.59;;;16.26;69.76
4617;BME280;2321;42.704;23.384;2022-12-11T06:21:11;93390.56;;;16.31;67.57
4617;BME280;2321;42.704;23.384;2022-12-11T06:23:39;93412.00;;;16.42;65.90
4617;BME280;2321;42.704;23.384;2022-12-11T06:26:06;93410.38;;;16.41;64.68
4617;BME280;2321;42.704;23.384;2022-12-11T06:28:33;93409.31;;;16.42;63.75
4617;BME280;2321;42.704;23.384;2022-12-11T06:31:00;93417.88;;;16.49;62.95
4617;BME280;2321;42.704;23.384;2022-12-11T06:33:35;93402.56;;;16.50;63.35
4617;BME280;2321;42.704;23.384;2022-12-11T06:36:05;93400.38;;;16.52;64.11
4617;BME280;2321;42.704;23.384;2022-12-11T06:38:33;93396.09;;;16.51;58.39
4617;BME280;2321;42.704;23.384;2022-12-11T06:41:03;93417.72;;;16.70;59.20
4617;BME280;2321;42.704;23.384;2022-12-11T06:43:31;93412.31;;;16.75;60.20
4617;BME280;2321;42.704;23.384;2022-12-11T06:45:58;93401.84;;;16.74;61.65
4617;BME280;2321;42.704;23.384;2022-12-11T06:48:25;93393.22;;;16.77;62.94
4617;BME280;2321;42.704;23.384;2022-12-11T06:50:52;93397.25;;;16.74;61.01
4617;BME280;2321;42.704;23.384;2022-12-11T06:53:28;93413.63;;;16.78;61.90
4617;BME280;2321;42.704;23.384;2022-12-11T06:56:07;93407.97;;;16.80;62.91
4617;BME280;2321;42.704;23.384;2022-12-11T06:58:52;93403.06;;;16.87;58.39
4617;BME280;2321;42.704;23.384;2022-12-11T07:01:22;93419.44;;;16.91;60.25
4617;BME280;2321;42.704;23.384;2022-12-11T07:03:51;93414.34;;;16.89;61.31
4617;BME280;2321;42.704;23.384;2022-12-11T07:06:18;93407.88;;;16.90;60.50
4617;BME280;2321;42.704;23.384;2022-12-11T07:08:48;93410.06;;;16.88;60.59
4617;BME280;2321;42.704;23.384;2022-12-11T07:11:17;93425.09;;;16.89;60.71
4617;BME280;2321;42.704;23.384;2022-12-11T07:13:46;93426.94;;;16.94;61.01
4617;BME280;2321;42.704;23.384;2022-12-11T07:16:14;93423.97;;;16.95;62.00
4617;BME280;2321;42.704;23.384;2022-12-11T07:18:45;93422.88;;;16.96;61.87
4617;BME280;2321;42.704;23.384;2022-12-11T07:21:12;93439.56;;;16.98;62.69
4617;BME280;2321;42.704;23.384;2022-12-11T07:23:40;93411.06;;;16.97;63.25
4617;BME280;2321;42.704;23.384;2022-12-11T07:26:09;93424.41;;;17.08;63.11
4617;BME280;2321;42.704;23.384;2022-12-11T07:28:37;93436.25;;;17.07;62.95
4617;BME280;2321;42.704;23.384;2022-12-11T07:31:05;93446.94;;;17.12;60.82
4617;BME280;2321;42.704;23.384;2022-12-11T07:33:32;93450.16;;;17.14;61.28
4617;BME280;2321;42.704;23.384;2022-12-11T07:36:00;93452.28;;;17.17;63.13
4617;BME280;2321;42.704;23.384;2022-12-11T07:38:28;93449.06;;;17.15;62.92
4617;BME280;2321;42.704;23.384;2022-12-11T07:40:55;93457.13;;;17.20;60.80
4617;BME280;2321;42.704;23.384;2022-12-11T07:43:23;93465.69;;;17.28;61.00
4617;BME280;2321;42.704;23.384;2022-12-11T07:45:50;93476.38;;;17.33;59.49
4617;BME280;2321;42.704;23.384;2022-12-11T07:48:17;93490.00;;;17.42;60.11
4617;BME280;2321;42.704;23.384;2022-12-11T07:50:44;93489.94;;;17.52;60.63
4617;BME280;2321;42.704;23.384;2022-12-11T07:53:11;93487.53;;;17.51;63.07
4617;BME280;2321;42.704;23.384;2022-12-11T07:55:38;93489.75;;;17.44;62.06
4617;BME280;2321;42.704;23.384;2022-12-11T07:58:14;93489.69;;;17.49;63.06
4617;BME280;2321;42.704;23.384;2022-12-11T08:00:44;93489.28;;;17.66;62.75
4617;BME280;2321;42.704;23.384;2022-12-11T08:03:12;93488.19;;;17.67;61.57
4617;BME280;2321;42.704;23.384;2022-12-11T08:05:39;93486.63;;;17.61;61.59
4617;BME280;2321;42.704;23.384;2022-12-11T08:08:06;93489.06;;;17.57;62.15
4617;BME280;2321;42.704;23.384;2022-12-11T08:10:32;93493.66;;;17.57;62.71
4617;BME280;2321;42.704;23.384;2022-12-11T08:12:59;93487.53;;;17.51;63.09
4617;BME280;2321;42.704;23.384;2022-12-11T08:15:26;93483.84;;;17.41;62.38
4617;BME280;2321;42.704;23.384;2022-12-11T08:17:55;93482.81;;;17.37;62.75
4617;BME280;2321;42.704;23.384;2022-12-11T08:20:21;93475.31;;;17.34;62.80
4617;BME280;2321;42.704;23.384;2022-12-11T08:22:50;93496.00;;;17.34;64.31
4617;BME280;2321;42.704;23.384;2022-12-11T08:25:17;93495.22;;;17.33;65.07
4617;BME280;2321;42.704;23.384;2022-12-11T08:27:44;93464.59;;;17.29;67.68
4617;BME280;2321;42.704;23.384;2022-12-11T08:30:12;93482.94;;;17.22;69.48
4617;BME280;2321;42.704;23.384;2022-12-11T08:32:39;93488.25;;;17.27;68.23
4617;BME280;2321;42.704;23.384;2022-12-11T08:35:08;93484.31;;;17.14;68.88
4617;BME280;2321;42.704;23.384;2022-12-11T08:37:35;93479.16;;;17.17;68.59
4617;BME280;2321;42.704;23.384;2022-12-11T08:40:02;93491.56;;;17.18;68.95
4617;BME280;2321;42.704;23.384;2022-12-11T08:42:29;93486.72;;;17.15;71.28
4617;BME280;2321;42.704;23.384;2022-12-11T08:44:56;93489.41;;;17.15;71.75
4617;BME280;2321;42.704;23.384;2022-12-11T08:47:23;93484.59;;;17.12;74.02
4617;BME280;2321;42.704;23.384;2022-12-11T08:49:50;93491.06;;;17.11;71.06
4617;BME280;2321;42.704;23.384;2022-12-11T08:52:18;93493.75;;;17.11;71.31
4617;BME280;2321;42.704;23.384;2022-12-11T08:54:45;93488.34;;;17.16;68.07
4617;BME280;2321;42.704;23.384;2022-12-11T08:57:13;93488.34;;;17.16;65.75
4617;BME280;2321;42.704;23.384;2022-12-11T08:59:40;93493.22;;;17.09;70.10
4617;BME280;2321;42.704;23.384;2022-12-11T09:02:10;93482.00;;;17.02;72.74
4617;BME280;2321;42.704;23.384;2022-12-11T09:04:37;93483.03;;;17.06;75.97
4617;BME280;2321;42.704;23.384;2022-12-11T09:07:04;93489.00;;;16.97;70.53
4617;BME280;2321;42.704;23.384;2022-12-11T09:09:33;93480.63;;;17.04;70.62
4617;BME280;2321;42.704;23.384;2022-12-11T09:12:00;93483.78;;;17.12;75.74
4617;BME280;2321;42.704;23.384;2022-12-11T09:14:29;93488.88;;;17.18;78.58
4617;BME280;2321;42.704;23.384;2022-12-11T09:16:56;93480.53;;;17.20;79.68
4617;BME280;2321;42.704;23.384;2022-12-11T09:19:22;93477.84;;;17.20;80.47
4617;BME280;2321;42.704;23.384;2022-12-11T09:21:49;93481.06;;;17.22;82.98
4617;BME280;2321;42.704;23.384;2022-12-11T09:24:16;93470.59;;;17.15;84.27
4617;BME280;2321;42.704;23.384;2022-12-11T09:26:44;93468.50;;;17.07;86.74
4617;BME280;2321;42.704;23.384;2022-12-11T09:29:12;93472.31;;;17.01;88.88
4617;BME280;2321;42.704;23.384;2022-12-11T09:31:39;93462.88;;;17.03;88.75
4617;BME280;2321;42.704;23.384;2022-12-11T09:34:12;93459.94;;;17.05;87.11
4617;BME280;2321;42.704;23.384;2022-12-11T09:36:42;93483.84;;;17.06;87.95
4617;BME280;2321;42.704;23.384;2022-12-11T09:39:10;93472.75;;;17.13;84.52
4617;BME280;2321;42.704;23.384;2022-12-11T09:41:40;93456.38;;;17.09;83.96
4617;BME280;2321;42.704;23.384;2022-12-11T09:47:32;93451.06;;;17.04;83.56
4617;BME280;2321;42.704;23.384;2022-12-11T09:50:05;93448.88;;;17.06;83.92
4617;BME280;2321;42.704;23.384;2022-12-11T09:52:45;93453.56;;;16.95;78.15
4617;BME280;2321;42.704;23.384;2022-12-11T09:55:19;93459.19;;;16.94;75.87
4617;BME280;2321;42.704;23.384;2022-12-11T09:57:53;93461.63;;;16.90;74.20
4617;BME280;2321;42.704;23.384;2022-12-11T10:00:25;93458.94;;;16.90;73.39
4617;BME280;2321;42.704;23.384;2022-12-11T10:03:18;93455.22;;;16.86;71.14
4617;BME280;2321;42.704;23.384;2022-12-11T10:05:53;93454.44;;;16.85;73.07
4617;BME280;2321;42.704;23.384;2022-12-11T10:08:29;93455.22;;;16.86;72.20
4617;BME280;2321;42.704;23.384;2022-12-11T10:11:04;93457.34;;;16.89;70.34
4617;BME280;2321;42.704;23.384;2022-12-11T10:13:42;93448.00;;;16.81;68.77
4617;BME280;2321;42.704;23.384;2022-12-11T10:16:20;93431.66;;;16.72;68.94
4617;BME280;2321;42.704;23.384;2022-12-11T10:18:52;93440.22;;;16.80;71.35
4617;BME280;2321;42.704;23.384;2022-12-11T10:21:19;93440.69;;;16.87;71.54
4617;BME280;2321;42.704;23.384;2022-12-11T10:23:51;93441.75;;;16.91;71.05
4617;BME280;2321;42.704;23.384;2022-12-11T10:26:21;93437.22;;;16.86;71.76
4617;BME280;2321;42.704;23.384;2022-12-11T10:28:49;93431.56;;;16.88;70.90
4617;BME280;2321;42.704;23.384;2022-12-11T10:31:17;93446.06;;;16.92;71.78
4617;BME280;2321;42.704;23.384;2022-12-11T10:33:56;93443.38;;;16.87;75.14
4617;BME280;2321;42.704;23.384;2022-12-11T10:36:27;93439.06;;;16.91;77.19
4617;BME280;2321;42.704;23.384;2022-12-11T10:38:54;93456.59;;;16.83;80.26
4617;BME280;2321;42.704;23.384;2022-12-11T10:41:23;93457.97;;;16.75;79.56
4617;BME280;2321;42.704;23.384;2022-12-11T10:43:51;93454.28;;;16.66;86.68
4617;BME280;2321;42.704;23.384;2022-12-11T10:46:21;93447.38;;;16.54;97.86
4617;BME280;2321;42.704;23.384;2022-12-11T10:48:49;93428.66;;;16.39;100.00
4617;BME280;2321;42.704;23.384;2022-12-11T10:51:21;93422.31;;;16.24;100.00
4617;BME280;2321;42.704;23.384;2022-12-11T10:53:52;93412.13;;;16.21;100.00
4617;BME280;2321;42.704;23.384;2022-12-11T10:56:25;93412.09;;;16.26;98.61
4617;BME280;2321;42.704;23.384;2022-12-11T10:58:54;93407.22;;;16.33;100.00
4617;BME280;2321;42.704;23.384;2022-12-11T11:01:23;93413.09;;;16.36;98.37
4617;BME280;2321;42.704;23.384;2022-12-11T11:06:28;93408.53;;;16.36;99.90
4617;BME280;2321;42.704;23.384;2022-12-11T11:08:56;93412.28;;;16.35;97.30
4617;BME280;2321;42.704;23.384;2022-12-11T11:11:27;93415.25;;;16.39;93.57
4617;BME280;2321;42.704;23.384;2022-12-11T11:14:12;93420.34;;;16.40;87.15
4617;BME280;2321;42.704;23.384;2022-12-11T11:16:39;93418.69;;;16.50;82.99
4617;BME280;2321;42.704;23.384;2022-12-11T11:19:18;93423.72;;;16.57;84.14
4617;BME280;2321;42.704;23.384;2022-12-11T11:21:50;93425.81;;;16.65;84.87
4617;BME280;2321;42.704;23.384;2022-12-11T11:24:25;93430.09;;;16.71;84.20
4617;BME280;2321;42.704;23.384;2022-12-11T11:26:53;93423.41;;;16.63;92.74
4617;BME280;2321;42.704;23.384;2022-12-11T11:29:24;93425.63;;;16.51;97.14
4617;BME280;2321;42.704;23.384;2022-12-11T11:31:54;93428.63;;;16.49;98.67
4617;BME280;2321;42.704;23.384;2022-12-11T11:34:21;93411.72;;;16.43;100.00
4617;BME280;2321;42.704;23.384;2022-12-11T11:36:57;93417.97;;;16.33;100.00
4617;BME280;2321;42.704;23.384;2022-12-11T11:39:32;93413.19;;;16.25;100.00
4617;BME280;2321;42.704;23.384;2022-12-11T11:42:05;93411.06;;;16.22;100.00
4617;BME280;2321;42.704;23.384;2022-12-11T11:44:39;93405.44;;;16.18;100.00
4617;BME280;2321;42.704;23.384;2022-12-11T11:49:48;93402.50;;;16.15;100.00
4617;BME280;2321;42.704;23.384;2022-12-11T11:52:25;93401.91;;;16.23;100.00
4617;BME280;2321;42.704;23.384;2022-12-11T11:54:59;93390.34;;;16.28;100.00
4617;BME280;2321;42.704;23.384;2022-12-11T11:57:35;93378.78;;;16.27;100.00
4617;BME280;2321;42.704;23.384;2022-12-11T12:00:16;93376.66;;;16.24;100.00
4617;BME280;2321;42.704;23.384;2022-12-11T12:02:45;93387.38;;;16.29;100.00
4617;BME280;2321;42.704;23.384;2022-12-11T12:05:14;93398.91;;;16.30;100.00
4617;BME280;2321;42.704;23.384;2022-12-11T12:07:49;93400.22;;;16.32;100.00
4617;BME280;2321;42.704;23.384;2022-12-11T12:10:23;93383.94;;;16.18;100.00
4617;BME280;2321;42.704;23.384;2022-12-11T12:12:57;93397.38;;;16.18;100.00
4617;BME280;2321;42.704;23.384;2022-12-11T12:15:34;93409.59;;;15.74;100.00
4617;BME280;2321;42.704;23.384;2022-12-11T12:18:12;93411.91;;;15.09;100.00
4617;BME280;2321;42.704;23.384;2022-12-11T12:20:47;93413.75;;;14.45;100.00
4617;BME280;2321;42.704;23.384;2022-12-11T12:23:46;93428.34;;;13.96;100.00
4617;BME280;2321;42.704;23.384;2022-12-11T12:26:24;93439.19;;;13.19;100.00
4617;BME280;2321;42.704;23.384;2022-12-11T12:29:00;93440.84;;;12.54;100.00
4617;BME280;2321;42.704;23.384;2022-12-11T12:31:47;93427.94;;;11.95;100.00
4617;BME280;2321;42.704;23.384;2022-12-11T12:34:21;93435.22;;;11.55;100.00
4617;BME280;2321;42.704;23.384;2022-12-11T12:36:55;93438.69;;;11.16;100.00
4617;BME280;2321;42.704;23.384;2022-12-11T12:39:34;93436.84;;;10.82;100.00
4617;BME280;2321;42.704;23.384;2022-12-11T12:42:10;93441.53;;;10.57;100.00
4617;BME280;2321;42.704;23.384;2022-12-11T12:44:48;93447.66;;;10.28;100.00
4617;BME280;2321;42.704;23.384;2022-12-11T12:49:55;93453.38;;;9.78;100.00
4617;BME280;2321;42.704;23.384;2022-12-11T12:52:28;93441.16;;;9.65;100.00
4617;BME280;2321;42.704;23.384;2022-12-11T12:55:02;93442.81;;;9.42;100.00
4617;BME280;2321;42.704;23.384;2022-12-11T12:57:42;93440.28;;;9.23;100.00
4617;BME280;2321;42.704;23.384;2022-12-11T13:00:11;93445.63;;;9.11;100.00
4617;BME280;2321;42.704;23.384;2022-12-11T13:02:46;93450.34;;;8.97;100.00
4617;BME280;2321;42.704;23.384;2022-12-11T13:05:19;93452.53;;;8.88;100.00
4617;BME280;2321;42.704;23.384;2022-12-11T13:07:48;93465.00;;;8.76;100.00
4617;BME280;2321;42.704;23.384;2022-12-11T13:10:26;93423.72;;;8.37;100.00
4617;BME280;2321;42.704;23.384;2022-12-11T13:12:54;93475.88;;;8.43;100.00
4617;BME280;2321;42.704;23.384;2022-12-11T13:15:37;93468.91;;;8.30;100.00
4617;BME280;2321;42.704;23.384;2022-12-11T13:18:31;93472.81;;;8.27;100.00
4617;BME280;2321;42.704;23.384;2022-12-11T13:21:00;93482.41;;;8.10;100.00
4617;BME280;2321;42.704;23.384;2022-12-11T13:23:28;93493.94;;;8.03;100.00
4617;BME280;2321;42.704;23.384;2022-12-11T13:25:58;93500.78;;;7.92;100.00
4617;BME280;2321;42.704;23.384;2022-12-11T13:28:29;93489.44;;;7.85;100.00
4617;BME280;2321;42.704;23.384;2022-12-11T13:31:25;93525.00;;;7.77;100.00
4617;BME280;2321;42.704;23.384;2022-12-11T13:33:56;93508.78;;;7.67;100.00
4617;BME280;2321;42.704;23.384;2022-12-11T13:36:32;93525.81;;;7.59;100.00